createdAt,value
2018-05-08T00:00:15.097Z,54.80
2018-05-08T00:02:43.334Z,54.70
2018-05-08T00:05:11.578Z,55.10
2018-05-08T00:07:39.812Z,55.10
2018-05-08T00:10:08.830Z,55.10
2018-05-08T00:12:37.070Z,55.10
2018-05-08T00:15:06.074Z,55.30
2018-05-08T00:17:35.074Z,54.20
2018-05-08T00:20:04.087Z,54.50
2018-05-08T00:22:32.329Z,54.40
2018-05-08T00:25:00.565Z,54.30
2018-05-08T00:27:28.809Z,54.30
2018-05-08T00:29:57.050Z,54.40
2018-05-08T00:32:25.341Z,53.90
2018-05-08T00:34:54.338Z,54.10
2018-05-08T00:37:23.358Z,53.90
2018-05-08T00:39:51.594Z,53.90
2018-05-08T00:42:20.611Z,53.70
2018-05-08T00:44:48.850Z,53.70
2018-05-08T00:47:17.077Z,53.70
2018-05-08T00:49:45.529Z,53.60
2018-05-08T00:52:14.526Z,54.20
2018-05-08T00:55:00.592Z,54.10
2018-05-08T00:57:28.817Z,54.00
2018-05-08T00:59:57.046Z,53.90
2018-05-08T01:02:25.296Z,53.60
2018-05-08T01:04:53.617Z,53.80
2018-05-08T01:07:21.815Z,53.70
2018-05-08T01:09:50.010Z,53.60
2018-05-08T01:12:18.244Z,53.40
2018-05-08T01:14:47.249Z,53.30
2018-05-08T01:17:15.481Z,53.20
2018-05-08T01:19:43.733Z,53.50
2018-05-08T01:22:11.956Z,53.70
2018-05-08T01:24:40.954Z,53.20
2018-05-08T01:27:09.963Z,53.30
2018-05-08T01:29:38.193Z,53.20
2018-05-08T01:32:06.661Z,53.60
2018-05-08T01:34:34.899Z,53.60
2018-05-08T01:37:03.125Z,53.50
2018-05-08T01:39:31.373Z,53.70
2018-05-08T01:41:59.606Z,53.40
2018-05-08T01:44:28.185Z,54.30
2018-05-08T01:46:57.184Z,54.20
2018-05-08T01:49:25.422Z,54.20
2018-05-08T01:51:53.678Z,54.20
2018-05-08T01:54:21.985Z,54.00
2018-05-08T01:56:50.216Z,54.00
2018-05-08T01:59:18.475Z,53.80
2018-05-08T02:01:46.703Z,54.20
2018-05-08T02:04:14.938Z,53.80
2018-05-08T02:06:43.177Z,54.00
2018-05-08T02:09:12.186Z,54.50
2018-05-08T02:11:40.421Z,54.40
2018-05-08T02:14:08.846Z,54.20
2018-05-08T02:16:37.073Z,54.70
2018-05-08T02:19:05.302Z,54.70
2018-05-08T02:21:33.545Z,54.40
2018-05-08T02:24:02.546Z,54.80
2018-05-08T02:26:31.570Z,54.80
2018-05-08T02:28:59.806Z,54.80
2018-05-08T02:31:28.815Z,55.00
2018-05-08T02:33:57.821Z,55.10
2018-05-08T02:36:26.073Z,55.10
2018-05-08T02:38:55.070Z,55.20
2018-05-08T02:41:24.071Z,54.70
2018-05-08T02:43:53.083Z,55.10
2018-05-08T02:46:21.325Z,55.10
2018-05-08T02:48:50.325Z,55.40
2018-05-08T02:51:19.337Z,55.60
2018-05-08T02:53:47.570Z,55.50
2018-05-08T02:56:15.817Z,55.40
2018-05-08T02:58:44.153Z,55.50
2018-05-08T03:01:13.158Z,55.70
2018-05-08T03:03:41.394Z,55.60
2018-05-08T03:06:09.643Z,55.80
2018-05-08T03:08:37.866Z,55.70
2018-05-08T03:11:06.884Z,56.30
2018-05-08T03:13:35.114Z,56.20
2018-05-08T03:16:03.444Z,56.00
2018-05-08T03:18:31.675Z,56.40
2018-05-08T03:21:00.670Z,56.70
2018-05-08T03:23:29.681Z,56.30
2018-05-08T03:25:57.913Z,56.30
2018-05-08T03:28:26.450Z,56.30
2018-05-08T03:30:54.680Z,56.60
2018-05-08T03:33:23.678Z,56.60
2018-05-08T03:35:51.962Z,56.50
2018-05-08T03:38:20.173Z,56.50
2018-05-08T03:40:48.498Z,56.70
2018-05-08T03:43:16.725Z,56.90
2018-05-08T03:45:44.959Z,56.90
2018-05-08T03:48:13.201Z,56.80
2018-05-08T03:50:41.446Z,57.10
2018-05-08T03:53:09.681Z,57.30
2018-05-08T03:55:37.921Z,57.10
2018-05-08T03:58:06.253Z,57.30
2018-05-08T04:00:53.074Z,57.40
2018-05-08T04:03:38.953Z,57.40
2018-05-08T04:06:11.435Z,57.60
2018-05-08T04:08:39.684Z,57.50
2018-05-08T04:11:07.930Z,57.80
2018-05-08T04:13:36.161Z,57.50
2018-05-08T04:16:04.419Z,58.10
2018-05-08T04:18:33.461Z,57.50
2018-05-08T04:21:01.704Z,57.30
2018-05-08T04:23:30.705Z,57.60
2018-05-08T04:25:58.949Z,57.60
2018-05-08T04:28:27.265Z,57.60
2018-05-08T04:30:55.507Z,57.50
2018-05-08T04:33:23.750Z,57.90
2018-05-08T04:35:51.989Z,57.80
2018-05-08T04:38:20.242Z,57.90
2018-05-08T04:40:49.246Z,57.60
2018-05-08T04:43:18.237Z,57.80
2018-05-08T04:45:47.252Z,57.70
2018-05-08T04:48:15.491Z,57.60
2018-05-08T04:50:43.726Z,57.70
2018-05-08T04:53:11.970Z,57.50
2018-05-08T04:55:40.201Z,57.80
2018-05-08T04:58:08.438Z,58.00
2018-05-08T05:00:36.682Z,57.80
2018-05-08T05:03:05.682Z,57.60
2018-05-08T05:05:33.926Z,57.60
2018-05-08T05:08:02.174Z,57.30
2018-05-08T05:10:30.422Z,57.40
2018-05-08T05:12:58.670Z,57.20
2018-05-08T05:15:27.658Z,57.50
2018-05-08T05:17:56.689Z,57.10
2018-05-08T05:20:24.918Z,57.10
2018-05-08T05:22:53.164Z,57.20
2018-05-08T05:25:21.493Z,56.50
2018-05-08T05:27:50.494Z,57.10
2018-05-08T05:30:18.746Z,57.00
2018-05-08T05:32:47.853Z,56.60
2018-05-08T05:35:16.861Z,56.60
2018-05-08T05:37:45.098Z,56.60
2018-05-08T05:40:13.342Z,56.60
2018-05-08T05:42:41.686Z,56.70
2018-05-08T05:45:09.831Z,56.70
2018-05-08T05:47:38.086Z,55.80
2018-05-08T05:50:06.323Z,56.20
2018-05-08T05:52:34.567Z,56.10
2018-05-08T05:55:03.603Z,55.90
2018-05-08T05:57:31.830Z,55.90
2018-05-08T06:00:00.846Z,56.10
2018-05-08T06:02:29.838Z,56.00
2018-05-08T06:04:58.111Z,56.00
2018-05-08T06:07:27.119Z,55.80
2018-05-08T06:09:55.349Z,55.80
2018-05-08T06:12:23.607Z,55.60
2018-05-08T06:14:51.858Z,55.00
2018-05-08T06:17:20.170Z,54.80
2018-05-08T06:19:49.102Z,55.10
2018-05-08T06:22:17.346Z,55.00
2018-05-08T06:24:45.602Z,55.70
2018-05-08T06:27:13.851Z,55.50
2018-05-08T06:29:42.088Z,55.40
2018-05-08T06:32:11.100Z,54.70
2018-05-08T06:34:39.334Z,54.60
2018-05-08T06:37:07.582Z,54.40
2018-05-08T06:39:35.893Z,53.10
2018-05-08T06:42:04.836Z,53.90
2018-05-08T06:44:33.078Z,53.90
2018-05-08T06:47:02.082Z,52.90
2018-05-08T06:49:31.093Z,51.80
2018-05-08T06:51:59.326Z,51.70
2018-05-08T06:54:27.569Z,52.50
2018-05-08T06:56:55.824Z,52.50
2018-05-08T06:59:24.055Z,51.80
2018-05-08T07:01:52.286Z,52.50
2018-05-08T07:04:20.542Z,52.40
2018-05-08T07:06:48.785Z,52.10
2018-05-08T07:09:17.069Z,51.50
2018-05-08T07:11:45.278Z,52.30
2018-05-08T07:14:13.542Z,51.70
2018-05-08T07:16:41.773Z,50.70
2018-05-08T07:19:10.016Z,50.10
2018-05-08T07:21:38.253Z,49.70
2018-05-08T07:24:07.271Z,49.80
2018-05-08T07:26:35.497Z,49.80
2018-05-08T07:29:03.733Z,49.80
2018-05-08T07:31:31.965Z,50.00
2018-05-08T07:34:00.962Z,48.20
2018-05-08T07:36:29.997Z,49.80
2018-05-08T07:38:58.245Z,49.80
2018-05-08T07:41:26.490Z,49.90
2018-05-08T07:43:54.781Z,48.90
2018-05-08T07:46:23.782Z,47.50
2018-05-08T07:48:52.974Z,48.80
2018-05-08T07:51:22.006Z,47.50
2018-05-08T07:53:50.243Z,47.50
2018-05-08T07:56:19.253Z,46.70
2018-05-08T07:58:47.501Z,46.60
2018-05-08T08:01:16.493Z,47.00
2018-05-08T08:03:45.509Z,46.80
2018-05-08T08:06:13.756Z,46.80
2018-05-08T08:08:41.985Z,46.90
2018-05-08T08:11:10.229Z,46.50
2018-05-08T08:13:38.465Z,45.60
2018-05-08T08:16:06.716Z,44.90
2018-05-08T08:18:34.981Z,44.30
2018-05-08T08:21:03.237Z,44.20
2018-05-08T08:23:32.233Z,43.30
2018-05-08T08:26:00.470Z,43.30
2018-05-08T08:28:28.719Z,43.60
2018-05-08T08:30:56.966Z,43.50
2018-05-08T08:33:25.201Z,44.00
2018-05-08T08:35:53.435Z,43.70
2018-05-08T08:38:21.865Z,43.50
2018-05-08T08:40:50.938Z,42.50
2018-05-08T08:43:19.866Z,42.50
2018-05-08T08:45:48.876Z,42.70
2018-05-08T08:48:17.112Z,42.60
2018-05-08T08:50:45.345Z,42.20
2018-05-08T08:53:13.578Z,42.70
2018-05-08T08:55:42.622Z,41.10
2018-05-08T08:58:10.857Z,41.10
2018-05-08T09:00:39.093Z,40.40
2018-05-08T09:03:07.342Z,40.30
2018-05-08T09:05:35.586Z,41.60
2018-05-08T09:08:04.585Z,38.60
2018-05-08T09:10:32.835Z,38.50
2018-05-08T09:13:01.844Z,40.10
2018-05-08T09:15:30.943Z,39.00
2018-05-08T09:17:59.928Z,36.70
2018-05-08T09:20:28.937Z,37.30
2018-05-08T09:22:57.507Z,37.30
2018-05-08T09:25:25.737Z,36.90
2018-05-08T09:27:53.965Z,37.90
2018-05-08T09:30:22.987Z,36.90
2018-05-08T09:32:51.265Z,36.90
2018-05-08T09:35:19.801Z,37.60
2018-05-08T09:37:48.805Z,35.40
2018-05-08T09:40:17.045Z,35.40
2018-05-08T09:42:45.302Z,36.10
2018-05-08T09:45:13.777Z,34.40
2018-05-08T09:47:42.006Z,36.10
2018-05-08T09:50:11.010Z,35.90
2018-05-08T09:52:39.275Z,35.80
2018-05-08T09:55:08.273Z,34.00
2018-05-08T09:57:36.501Z,33.90
2018-05-08T10:00:04.755Z,33.40
2018-05-08T10:02:33.000Z,32.90
2018-05-08T10:05:01.243Z,33.70
2018-05-08T10:07:29.478Z,33.90
2018-05-08T10:09:57.715Z,32.00
2018-05-08T10:12:26.726Z,33.20
2018-05-08T10:14:54.970Z,33.20
2018-05-08T10:17:23.214Z,32.50
2018-05-08T10:19:51.451Z,32.50
2018-05-08T10:22:19.695Z,32.50
2018-05-08T10:24:47.926Z,31.80
2018-05-08T10:27:16.187Z,32.20
2018-05-08T10:29:44.418Z,32.10
2018-05-08T10:32:12.718Z,31.20
2018-05-08T10:34:41.738Z,31.40
2018-05-08T10:37:09.966Z,31.40
2018-05-08T10:39:38.971Z,32.30
2018-05-08T10:42:07.986Z,31.60
2018-05-08T10:44:36.218Z,31.50
2018-05-08T10:47:04.556Z,32.20
2018-05-08T10:49:32.707Z,30.70
2018-05-08T10:52:00.958Z,30.20
2018-05-08T10:54:29.957Z,30.00
2018-05-08T10:56:58.997Z,30.80
2018-05-08T10:59:27.248Z,30.80
2018-05-08T11:01:55.478Z,31.40
2018-05-08T11:04:23.744Z,32.10
2018-05-08T11:06:51.965Z,32.50
2018-05-08T11:09:20.218Z,31.20
2018-05-08T11:11:49.217Z,31.00
2018-05-08T11:14:18.237Z,30.50
2018-05-08T11:16:46.470Z,30.50
2018-05-08T11:19:14.732Z,30.30
2018-05-08T11:21:42.950Z,29.10
2018-05-08T11:24:11.956Z,31.00
2018-05-08T11:26:40.279Z,30.90
2018-05-08T11:29:08.444Z,31.70
2018-05-08T11:31:36.770Z,30.90
2018-05-08T11:34:05.766Z,30.20
2018-05-08T11:36:34.011Z,30.20
2018-05-08T11:39:02.246Z,30.20
2018-05-08T11:41:30.494Z,31.60
2018-05-08T11:43:58.738Z,29.50
2018-05-08T11:46:26.969Z,28.70
2018-05-08T11:48:55.216Z,28.80
2018-05-08T11:51:23.445Z,29.50
2018-05-08T11:53:51.702Z,30.30
2018-05-08T11:56:19.937Z,30.60
2018-05-08T11:58:48.961Z,27.50
2018-05-08T12:01:17.209Z,27.50
2018-05-08T12:03:46.201Z,30.30
2018-05-08T12:06:15.209Z,30.90
2018-05-08T12:08:43.450Z,30.90
2018-05-08T12:11:11.689Z,30.40
2018-05-08T12:13:39.939Z,30.20
2018-05-08T12:16:08.198Z,29.40
2018-05-08T12:18:37.287Z,29.70
2018-05-08T12:21:06.405Z,30.30
2018-05-08T12:23:34.639Z,30.20
2018-05-08T12:26:02.867Z,30.00
2018-05-08T12:28:31.127Z,30.50
2018-05-08T12:30:59.357Z,29.80
2018-05-08T12:33:27.610Z,28.90
2018-05-08T12:35:55.874Z,29.70
2018-05-08T12:38:24.162Z,29.10
2018-05-08T12:40:52.381Z,28.80
2018-05-08T12:43:21.403Z,30.00
2018-05-08T12:45:49.639Z,30.00
2018-05-08T12:48:18.246Z,29.70
2018-05-08T12:50:47.374Z,29.60
2018-05-08T12:53:15.615Z,29.60
2018-05-08T12:55:44.682Z,28.40
2018-05-08T12:58:12.909Z,28.40
2018-05-08T13:00:41.162Z,27.40
2018-05-08T13:03:09.447Z,27.30
2018-05-08T13:05:37.809Z,27.30
2018-05-08T13:08:06.829Z,27.30
2018-05-08T13:10:35.064Z,27.30
2018-05-08T13:13:03.363Z,26.90
2018-05-08T13:15:32.359Z,26.70
2018-05-08T13:18:00.595Z,26.70
2018-05-08T13:20:28.946Z,27.30
2018-05-08T13:22:57.181Z,28.90
2018-05-08T13:25:25.430Z,29.10
2018-05-08T13:27:53.733Z,29.00
2018-05-08T13:30:22.734Z,29.20
2018-05-08T13:32:50.985Z,29.10
2018-05-08T13:35:19.986Z,29.60
2018-05-08T13:37:49.016Z,29.60
2018-05-08T13:40:17.371Z,29.50
2018-05-08T13:42:46.362Z,29.10
2018-05-08T13:45:14.593Z,29.10
2018-05-08T13:47:42.837Z,28.60
2018-05-08T13:50:11.073Z,30.10
2018-05-08T13:52:40.082Z,30.10
2018-05-08T13:55:09.127Z,29.80
2018-05-08T13:57:37.325Z,29.70
2018-05-08T14:00:05.574Z,30.00
2018-05-08T14:02:33.813Z,30.40
2018-05-08T14:05:02.059Z,29.50
2018-05-08T14:07:31.061Z,29.80
2018-05-08T14:10:00.062Z,29.00
2018-05-08T14:12:29.083Z,28.90
2018-05-08T14:14:57.662Z,28.80
2018-05-08T14:17:25.895Z,29.80
2018-05-08T14:19:54.123Z,30.20
2018-05-08T14:22:22.388Z,30.10
2018-05-08T14:24:50.702Z,30.50
2018-05-08T14:27:18.843Z,29.10
2018-05-08T14:29:47.091Z,29.30
2018-05-08T14:32:15.330Z,29.50
2018-05-08T14:34:43.651Z,29.90
2018-05-08T14:37:11.813Z,29.40
2018-05-08T14:39:40.856Z,29.90
2018-05-08T14:42:09.390Z,29.90
2018-05-08T14:44:38.398Z,30.60
2018-05-08T14:47:06.626Z,30.60
2018-05-08T14:49:34.984Z,31.00
2018-05-08T14:52:03.306Z,30.20
2018-05-08T14:54:32.306Z,29.20
2018-05-08T14:57:01.402Z,29.80
2018-05-08T14:59:30.409Z,29.70
2018-05-08T15:01:58.658Z,29.60
2018-05-08T15:04:27.782Z,30.00
2018-05-08T15:06:55.910Z,29.90
2018-05-08T15:09:25.661Z,30.70
2018-05-08T15:11:53.908Z,30.70
2018-05-08T15:14:22.917Z,32.40
2018-05-08T15:16:51.914Z,31.80
2018-05-08T15:19:20.170Z,31.70
2018-05-08T15:21:48.422Z,31.70
2018-05-08T15:24:16.630Z,31.60
2018-05-08T15:26:45.646Z,32.30
2018-05-08T15:29:13.982Z,32.40
2018-05-08T15:31:42.113Z,32.60
2018-05-08T15:34:10.362Z,32.90
2018-05-08T15:36:38.594Z,34.10
2018-05-08T15:39:06.919Z,33.80
2018-05-08T15:41:35.081Z,34.50
2018-05-08T15:44:04.078Z,33.50
2018-05-08T15:46:32.329Z,33.50
2018-05-08T15:49:00.579Z,33.50
2018-05-08T15:51:28.809Z,33.40
2018-05-08T15:53:57.043Z,33.80
2018-05-08T15:56:25.292Z,33.30
2018-05-08T15:58:53.553Z,33.50
2018-05-08T16:01:21.812Z,34.30
2018-05-08T16:03:50.042Z,34.60
2018-05-08T16:06:18.281Z,35.20
2018-05-08T16:08:46.517Z,35.90
2018-05-08T16:11:15.516Z,35.80
2018-05-08T16:13:44.526Z,35.80
2018-05-08T16:16:12.765Z,35.80
2018-05-08T16:18:41.010Z,36.60
2018-05-08T16:21:09.242Z,37.00
2018-05-08T16:23:37.525Z,37.20
2018-05-08T16:26:05.757Z,37.10
2018-05-08T16:28:33.991Z,37.30
2018-05-08T16:31:02.238Z,37.00
2018-05-08T16:33:31.399Z,36.90
2018-05-08T16:35:59.617Z,36.80
2018-05-08T16:38:27.851Z,36.80
2018-05-08T16:40:56.093Z,37.30
2018-05-08T16:43:24.337Z,37.00
2018-05-08T16:45:53.338Z,37.10
2018-05-08T16:48:21.594Z,37.00
2018-05-08T16:50:49.990Z,37.30
2018-05-08T16:53:18.991Z,37.10
2018-05-08T16:55:47.227Z,37.10
2018-05-08T16:58:15.468Z,37.40
2018-05-08T17:00:43.706Z,37.50
2018-05-08T17:03:11.962Z,37.70
2018-05-08T17:05:40.211Z,37.30
2018-05-08T17:08:08.441Z,37.50
2018-05-08T17:10:36.752Z,38.00
2018-05-08T17:13:04.922Z,38.10
2018-05-08T17:15:33.158Z,38.30
2018-05-08T17:18:02.175Z,38.30
2018-05-08T17:20:30.409Z,38.20
2018-05-08T17:22:59.413Z,39.10
2018-05-08T17:25:28.458Z,39.70
2018-05-08T17:27:56.662Z,39.60
2018-05-08T17:30:24.910Z,40.30
2018-05-08T17:32:53.141Z,41.30
2018-05-08T17:35:21.394Z,41.60
2018-05-08T17:37:49.638Z,41.70
2018-05-08T17:40:17.899Z,42.00
2018-05-08T17:42:46.138Z,42.30
2018-05-08T17:45:15.146Z,42.50
2018-05-08T17:47:43.393Z,42.50
2018-05-08T17:50:12.426Z,42.60
2018-05-08T17:52:40.651Z,42.50
2018-05-08T17:55:08.894Z,42.50
2018-05-08T17:57:37.127Z,42.80
2018-05-08T18:00:06.142Z,42.70
2018-05-08T18:02:34.378Z,42.70
2018-05-08T18:05:02.606Z,42.90
2018-05-08T18:07:30.853Z,43.70
2018-05-08T18:09:59.102Z,44.60
2018-05-08T18:12:27.350Z,45.60
2018-05-08T18:14:55.585Z,45.40
2018-05-08T18:17:23.860Z,45.60
2018-05-08T18:19:52.065Z,45.90
2018-05-08T18:22:20.310Z,46.00
2018-05-08T18:24:48.542Z,46.20
2018-05-08T18:27:16.789Z,46.20
2018-05-08T18:29:45.034Z,46.40
2018-05-08T18:32:13.274Z,46.30
2018-05-08T18:34:41.521Z,46.60
2018-05-08T18:37:09.754Z,46.90
2018-05-08T18:39:37.985Z,47.10
2018-05-08T18:42:06.235Z,47.00
2018-05-08T18:44:35.233Z,47.20
2018-05-08T18:47:03.490Z,47.10
2018-05-08T18:49:31.891Z,47.30
2018-05-08T18:52:00.115Z,47.50
2018-05-08T18:54:29.130Z,47.70
2018-05-08T18:56:57.591Z,47.60
2018-05-08T18:59:26.594Z,48.20
2018-05-08T19:01:54.853Z,48.20
2018-05-08T19:04:23.080Z,48.40
2018-05-08T19:06:51.341Z,48.40
2018-05-08T19:09:19.559Z,48.60
2018-05-08T19:11:47.791Z,49.00
2018-05-08T19:14:16.034Z,49.00
2018-05-08T19:16:45.041Z,48.90
2018-05-08T19:19:18.764Z,48.90
2018-05-08T19:21:46.994Z,48.90
2018-05-08T19:24:20.703Z,49.10
2018-05-08T19:26:48.926Z,49.60
2018-05-08T19:29:22.670Z,49.80
2018-05-08T19:31:51.669Z,50.00
2018-05-08T19:34:19.905Z,49.90
2018-05-08T19:36:53.486Z,50.00
2018-05-08T19:39:21.730Z,50.40
2018-05-08T19:41:50.718Z,50.90
2018-05-08T19:44:19.730Z,50.80
2018-05-08T19:46:47.994Z,50.70
2018-05-08T19:49:16.223Z,50.60
2018-05-08T19:51:44.553Z,50.60
2018-05-08T19:54:13.550Z,50.60
2018-05-08T19:56:41.793Z,50.60
2018-05-08T19:59:10.026Z,50.90
2018-05-08T20:01:38.378Z,50.90
2018-05-08T20:04:07.378Z,51.30
2018-05-08T20:06:35.618Z,51.30
2018-05-08T20:09:03.857Z,51.60
2018-05-08T20:11:32.137Z,51.50
2018-05-08T20:14:00.368Z,51.60
2018-05-08T20:16:29.377Z,51.50
2018-05-08T20:18:57.605Z,51.50
2018-05-08T20:21:27.364Z,52.00
2018-05-08T20:23:55.594Z,52.00
2018-05-08T20:26:23.850Z,51.80
2018-05-08T20:28:52.080Z,52.10
2018-05-08T20:31:20.314Z,52.10
2018-05-08T20:33:48.568Z,52.30
2018-05-08T20:36:16.807Z,52.40
2018-05-08T20:38:45.108Z,52.40
2018-05-08T20:41:13.338Z,52.70
2018-05-08T20:43:42.335Z,52.60
2018-05-08T20:46:11.354Z,52.80
2018-05-08T20:48:39.641Z,52.80
2018-05-08T20:51:07.862Z,52.70
2018-05-08T20:53:36.117Z,52.90
2018-05-08T20:56:04.348Z,52.80
2018-05-08T20:58:32.596Z,53.00
2018-05-08T21:01:00.875Z,53.00
2018-05-08T21:03:29.069Z,53.00
2018-05-08T21:05:58.068Z,53.20
2018-05-08T21:08:26.314Z,53.10
2018-05-08T21:10:54.553Z,53.30
2018-05-08T21:13:22.812Z,53.20
2018-05-08T21:15:51.050Z,53.30
2018-05-08T21:18:20.050Z,53.40
2018-05-08T21:20:49.070Z,53.50
2018-05-08T21:23:17.330Z,53.50
2018-05-08T21:25:46.325Z,53.70
2018-05-08T21:28:20.033Z,53.70
2018-05-08T21:30:53.919Z,53.70
2018-05-08T21:33:22.133Z,53.90
2018-05-08T21:35:50.398Z,54.00
2018-05-08T21:38:18.638Z,53.90
2018-05-08T21:40:47.649Z,54.20
2018-05-08T21:43:16.655Z,53.90
2018-05-08T21:45:44.886Z,53.80
2018-05-08T21:48:13.145Z,54.20
2018-05-08T21:50:41.403Z,54.20
2018-05-08T21:53:09.645Z,54.30
2018-05-08T21:55:37.876Z,54.30
2018-05-08T21:58:06.105Z,54.80
2018-05-08T22:00:34.650Z,54.70
2018-05-08T22:03:02.890Z,54.90
2018-05-08T22:05:31.134Z,54.60
2018-05-08T22:07:59.374Z,54.90
2018-05-08T22:10:27.613Z,54.80
2018-05-08T22:12:55.873Z,54.80
2018-05-08T22:15:24.167Z,54.70
2018-05-08T22:17:52.418Z,54.60
2018-05-08T22:20:20.665Z,54.50
2018-05-08T22:22:48.898Z,54.70
2018-05-08T22:25:17.213Z,54.50
2018-05-08T22:27:45.715Z,54.50
2018-05-08T22:30:13.977Z,54.50
2018-05-08T22:32:42.982Z,53.70
2018-05-08T22:35:11.994Z,53.70
2018-05-08T22:37:40.237Z,53.70
2018-05-08T22:40:09.263Z,53.70
2018-05-08T22:42:37.498Z,53.70
2018-05-08T22:45:05.745Z,53.70
2018-05-08T22:47:34.291Z,53.10
2018-05-08T22:50:02.536Z,53.40
2018-05-08T22:52:30.766Z,53.60
2018-05-08T22:54:59.001Z,53.00
2018-05-08T22:57:28.005Z,53.30
2018-05-08T22:59:56.253Z,53.30
2018-05-08T23:02:25.262Z,53.40
2018-05-08T23:07:28.761Z,53.70
2018-05-08T23:09:56.985Z,53.90
2018-05-08T23:12:25.213Z,53.80
2018-05-08T23:14:54.221Z,53.80
2018-05-08T23:17:23.230Z,53.90
2018-05-08T23:19:51.476Z,53.80
2018-05-08T23:22:20.481Z,53.70
2018-05-08T23:24:49.478Z,54.00
2018-05-08T23:27:17.738Z,54.60
2018-05-08T23:29:46.734Z,54.10
2018-05-08T23:32:15.737Z,54.20
2018-05-08T23:34:44.742Z,54.50
2018-05-08T23:37:12.990Z,54.40
2018-05-08T23:39:42.034Z,55.30
2018-05-08T23:42:10.282Z,54.60
2018-05-08T23:44:38.518Z,54.30
2018-05-08T23:47:07.066Z,54.50
2018-05-08T23:49:35.301Z,54.20
2018-05-08T23:52:04.308Z,54.90
2018-05-08T23:54:32.556Z,54.90
2018-05-08T23:57:00.789Z,55.20
2018-05-08T23:59:29.034Z,55.10
